createdAt,value
2018-12-26T00:01:27.450Z,4.23
2018-12-26T00:04:08.929Z,7.23
2018-12-26T00:06:50.195Z,5.57
2018-12-26T00:09:34.362Z,8.27
2018-12-26T00:12:15.554Z,9.63
2018-12-26T00:14:56.494Z,10.40
2018-12-26T00:17:37.460Z,3.77
2018-12-26T00:20:18.536Z,2.73
2018-12-26T00:22:59.454Z,4.90
2018-12-26T00:25:40.107Z,3.67
2018-12-26T00:28:22.566Z,7.60
2018-12-26T00:31:03.330Z,3.60
2018-12-26T00:33:46.332Z,3.83
2018-12-26T00:36:27.690Z,4.00
2018-12-26T00:39:09.008Z,2.23
2018-12-26T00:41:48.442Z,4.47
2018-12-26T00:44:29.684Z,4.40
2018-12-26T00:47:10.237Z,11.37
2018-12-26T00:49:51.024Z,6.07
2018-12-26T00:52:34.676Z,9.80
2018-12-26T00:55:16.278Z,6.07
2018-12-26T00:57:57.138Z,3.07
2018-12-26T01:00:43.972Z,6.37
2018-12-26T01:03:24.829Z,3.30
2018-12-26T01:06:05.982Z,3.40
2018-12-26T01:08:46.794Z,4.23
2018-12-26T01:11:27.735Z,5.30
2018-12-26T01:14:08.549Z,2.93
2018-12-26T01:16:49.624Z,5.97
2018-12-26T01:19:30.546Z,5.90
2018-12-26T01:22:12.034Z,5.80
2018-12-26T01:24:52.913Z,4.53
2018-12-26T01:27:34.218Z,4.60
2018-12-26T01:30:17.230Z,3.53
2018-12-26T01:32:57.907Z,3.47
2018-12-26T01:35:38.792Z,8.80
2018-12-26T01:38:20.547Z,3.20
2018-12-26T01:41:01.209Z,7.47
2018-12-26T01:46:02.201Z,4.90
2018-12-26T01:48:43.136Z,9.50
2018-12-26T01:51:24.165Z,3.13
2018-12-26T01:54:05.494Z,6.13
2018-12-26T01:56:46.135Z,3.33
2018-12-26T01:59:27.287Z,4.93
2018-12-26T02:02:08.964Z,4.37
2018-12-26T02:04:49.333Z,5.27
2018-12-26T02:07:30.135Z,5.63
2018-12-26T02:10:10.511Z,5.63
2018-12-26T02:12:51.729Z,2.40
2018-12-26T02:15:32.849Z,3.93
2018-12-26T02:18:13.512Z,4.40
2018-12-26T02:20:53.074Z,6.00
2018-12-26T02:23:41.238Z,4.07
2018-12-26T02:26:22.409Z,3.47
2018-12-26T02:29:03.401Z,11.23
2018-12-26T02:31:45.009Z,5.50
2018-12-26T02:34:30.636Z,3.13
2018-12-26T02:37:11.199Z,6.80
2018-12-26T02:39:51.817Z,11.00
2018-12-26T02:42:32.441Z,9.37
2018-12-26T02:45:13.209Z,3.70
2018-12-26T02:47:54.010Z,2.73
2018-12-26T02:50:34.771Z,6.13
2018-12-26T02:53:17.411Z,11.83
2018-12-26T02:55:58.511Z,3.23
2018-12-26T02:58:39.105Z,9.10
2018-12-26T03:01:19.575Z,6.20
2018-12-26T03:04:00.379Z,8.57
2018-12-26T03:06:41.029Z,11.10
2018-12-26T03:09:21.815Z,7.20
2018-12-26T03:12:02.631Z,8.50
2018-12-26T03:14:44.330Z,5.80
2018-12-26T03:17:25.766Z,5.33
2018-12-26T03:20:08.282Z,10.67
2018-12-26T03:22:49.148Z,5.83
2018-12-26T03:25:29.841Z,10.60
2018-12-26T03:28:11.498Z,8.63
2018-12-26T03:30:52.003Z,6.77
2018-12-26T03:33:39.128Z,13.20
2018-12-26T03:36:19.983Z,10.10
2018-12-26T03:39:01.126Z,11.03
2018-12-26T03:41:41.727Z,12.40
2018-12-26T03:44:23.076Z,6.67
2018-12-26T03:47:04.459Z,8.30
2018-12-26T03:49:45.310Z,11.50
2018-12-26T03:52:26.629Z,11.70
2018-12-26T03:55:07.256Z,13.30
2018-12-26T03:57:47.937Z,9.97
2018-12-26T04:00:28.535Z,11.10
2018-12-26T04:03:09.363Z,13.13
2018-12-26T04:05:50.678Z,12.93
2018-12-26T04:08:32.126Z,15.37
2018-12-26T04:11:12.889Z,13.07
2018-12-26T04:13:54.426Z,14.47
2018-12-26T04:16:35.177Z,13.30
2018-12-26T04:19:15.848Z,18.13
2018-12-26T04:21:58.872Z,18.30
2018-12-26T04:24:40.804Z,19.50
2018-12-26T04:27:22.213Z,14.73
2018-12-26T04:30:03.458Z,13.40
2018-12-26T04:32:44.108Z,16.50
2018-12-26T04:35:25.636Z,14.17
2018-12-26T04:38:06.835Z,17.30
2018-12-26T04:40:47.757Z,17.10
2018-12-26T04:43:27.084Z,21.40
2018-12-26T04:46:15.150Z,16.03
2018-12-26T04:48:56.288Z,14.57
2018-12-26T04:51:37.264Z,20.60
2018-12-26T04:54:18.660Z,14.07
2018-12-26T04:57:02.857Z,15.07
2018-12-26T04:59:44.037Z,12.53
2018-12-26T05:02:25.255Z,16.53
2018-12-26T05:05:06.455Z,16.03
2018-12-26T05:07:46.856Z,14.63
2018-12-26T05:10:28.019Z,19.60
2018-12-26T05:13:08.862Z,17.67
2018-12-26T05:15:50.156Z,13.23
2018-12-26T05:18:30.939Z,17.50
2018-12-26T05:21:11.925Z,17.93
2018-12-26T05:23:52.988Z,17.23
2018-12-26T05:26:33.674Z,16.60
2018-12-26T05:29:14.934Z,18.73
2018-12-26T05:31:55.721Z,16.23
2018-12-26T05:34:37.189Z,16.73
2018-12-26T05:37:17.739Z,17.00
2018-12-26T05:39:58.542Z,16.03
2018-12-26T05:42:39.332Z,19.00
2018-12-26T05:45:20.408Z,18.30
2018-12-26T05:48:01.497Z,20.97
2018-12-26T05:50:42.101Z,19.60
2018-12-26T05:53:22.811Z,21.53
2018-12-26T05:56:03.557Z,17.87
2018-12-26T05:58:44.589Z,20.33
2018-12-26T06:01:25.411Z,17.47
2018-12-26T06:04:06.192Z,18.43
2018-12-26T06:06:46.549Z,19.87
2018-12-26T06:09:27.331Z,23.37
2018-12-26T06:12:08.091Z,20.83
2018-12-26T06:14:49.241Z,15.97
2018-12-26T06:17:30.211Z,18.67
2018-12-26T06:20:11.083Z,17.97
2018-12-26T06:22:51.831Z,17.80
2018-12-26T06:25:35.834Z,17.23
2018-12-26T06:28:18.137Z,22.33
2018-12-26T06:30:59.003Z,22.77
2018-12-26T06:33:39.672Z,22.27
2018-12-26T06:36:20.548Z,19.73
2018-12-26T06:39:06.430Z,17.47
2018-12-26T06:41:49.164Z,20.60
2018-12-26T06:44:29.761Z,25.47
2018-12-26T06:47:10.801Z,18.27
2018-12-26T06:49:57.451Z,21.23
2018-12-26T06:52:38.493Z,24.30
2018-12-26T06:55:19.675Z,21.27
2018-12-26T06:58:02.531Z,19.43
2018-12-26T07:00:44.790Z,19.83
2018-12-26T07:03:26.136Z,19.40
2018-12-26T07:06:07.286Z,22.30
2018-12-26T07:08:47.791Z,22.93
2018-12-26T07:11:28.173Z,16.73
2018-12-26T07:14:09.152Z,22.20
2018-12-26T07:16:49.816Z,29.13
2018-12-26T07:19:30.582Z,28.30
2018-12-26T07:22:11.611Z,20.30
2018-12-26T07:24:52.358Z,18.40
2018-12-26T07:27:34.887Z,23.07
2018-12-26T07:30:16.100Z,21.53
2018-12-26T07:32:57.466Z,23.90
2018-12-26T07:35:37.846Z,24.73
2018-12-26T07:38:18.434Z,19.77
2018-12-26T07:40:59.118Z,18.10
2018-12-26T07:43:39.790Z,22.50
2018-12-26T07:46:20.835Z,28.37
2018-12-26T07:49:01.380Z,25.40
2018-12-26T07:51:41.807Z,23.77
2018-12-26T07:54:22.858Z,21.33
2018-12-26T07:57:06.514Z,22.23
2018-12-26T07:59:47.690Z,18.90
2018-12-26T08:02:28.579Z,18.90
2018-12-26T08:05:09.160Z,21.47
2018-12-26T08:07:50.104Z,23.20
2018-12-26T08:10:30.926Z,23.50
2018-12-26T08:13:11.938Z,18.30
2018-12-26T08:15:52.753Z,22.50
2018-12-26T08:18:33.642Z,22.60
2018-12-26T08:21:15.055Z,17.23
2018-12-26T08:23:56.586Z,24.67
2018-12-26T08:26:37.650Z,20.50
2018-12-26T08:29:18.404Z,19.27
2018-12-26T08:31:59.418Z,19.67
2018-12-26T08:34:40.105Z,24.73
2018-12-26T08:37:21.101Z,18.98
2018-12-26T08:40:02.195Z,18.27
2018-12-26T08:42:43.455Z,16.90
2018-12-26T08:45:24.237Z,19.13
2018-12-26T08:48:05.009Z,20.00
2018-12-26T08:50:45.909Z,19.30
2018-12-26T08:53:26.589Z,23.60
2018-12-26T08:58:56.113Z,19.00
2018-12-26T09:01:37.946Z,27.13
2018-12-26T09:04:19.575Z,22.10
2018-12-26T09:07:00.471Z,16.50
2018-12-26T09:09:41.220Z,17.40
2018-12-26T09:12:21.981Z,22.43
2018-12-26T09:15:02.823Z,19.10
2018-12-26T09:17:44.018Z,18.20
2018-12-26T09:20:27.350Z,14.30
2018-12-26T09:23:09.477Z,16.80
2018-12-26T09:25:50.344Z,13.28
2018-12-26T09:28:30.894Z,13.78
2018-12-26T09:31:11.367Z,15.03
2018-12-26T09:33:52.286Z,14.17
2018-12-26T09:36:42.178Z,20.08
2018-12-26T09:39:25.699Z,15.53
2018-12-26T09:42:09.506Z,10.77
2018-12-26T09:44:54.557Z,9.65
2018-12-26T09:47:35.516Z,9.40
2018-12-26T09:50:16.424Z,10.18
2018-12-26T09:52:56.987Z,10.50
2018-12-26T09:55:38.246Z,9.98
2018-12-26T09:58:19.396Z,15.00
2018-12-26T10:01:00.839Z,14.30
2018-12-26T10:03:41.602Z,9.83
2018-12-26T10:06:24.086Z,8.97
2018-12-26T10:09:05.201Z,12.73
2018-12-26T10:11:46.532Z,9.90
2018-12-26T10:14:27.009Z,9.93
2018-12-26T10:17:08.123Z,8.73
2018-12-26T10:19:50.260Z,9.20
2018-12-26T10:22:30.912Z,9.77
2018-12-26T10:25:11.424Z,10.63
2018-12-26T10:27:52.438Z,8.33
2018-12-26T10:30:35.932Z,13.00
2018-12-26T10:33:17.251Z,8.23
2018-12-26T10:35:57.708Z,9.70
2018-12-26T10:38:38.962Z,10.53
2018-12-26T10:41:21.830Z,8.13
2018-12-26T10:44:02.516Z,8.30
2018-12-26T10:46:43.054Z,9.77
2018-12-26T10:49:23.566Z,10.10
2018-12-26T10:52:07.894Z,12.53
2018-12-26T10:54:49.187Z,8.85
2018-12-26T10:57:30.359Z,8.70
2018-12-26T11:00:10.933Z,8.67
2018-12-26T11:02:51.366Z,11.10
2018-12-26T11:05:32.219Z,11.70
2018-12-26T11:08:12.705Z,10.30
2018-12-26T11:10:53.518Z,9.87
2018-12-26T11:13:34.264Z,11.03
2018-12-26T11:16:15.557Z,9.30
2018-12-26T11:18:57.482Z,8.03
2018-12-26T11:21:38.089Z,8.43
2018-12-26T11:24:18.983Z,12.13
2018-12-26T11:26:59.931Z,11.87
2018-12-26T11:32:24.932Z,7.90
2018-12-26T11:35:05.748Z,7.40
2018-12-26T11:37:46.460Z,9.30
2018-12-26T11:40:27.509Z,11.23
2018-12-26T11:43:09.026Z,12.67
2018-12-26T11:45:50.352Z,9.40
2018-12-26T11:48:20.644Z,11.83
2018-12-26T11:51:08.883Z,9.67
2018-12-26T11:53:56.945Z,13.37
2018-12-26T11:56:38.052Z,11.40
2018-12-26T11:59:27.005Z,10.20
2018-12-26T12:02:01.861Z,9.80
2018-12-26T12:04:43.097Z,12.60
2018-12-26T12:07:23.594Z,18.87
2018-12-26T12:10:05.936Z,17.77
2018-12-26T12:12:47.933Z,9.80
2018-12-26T12:15:29.351Z,11.07
2018-12-26T12:18:10.842Z,10.30
2018-12-26T12:20:54.024Z,10.67
2018-12-26T12:23:34.826Z,10.30
2018-12-26T12:26:16.572Z,12.97
2018-12-26T12:28:57.298Z,11.30
2018-12-26T12:31:39.421Z,11.57
2018-12-26T12:34:20.498Z,13.13
2018-12-26T12:37:01.421Z,11.47
2018-12-26T12:39:41.990Z,16.40
2018-12-26T12:42:22.578Z,11.60
2018-12-26T12:45:03.396Z,14.13
2018-12-26T12:47:43.898Z,13.17
2018-12-26T12:50:24.358Z,11.53
2018-12-26T12:53:04.834Z,14.70
2018-12-26T12:55:45.626Z,15.23
2018-12-26T12:58:26.378Z,18.00
2018-12-26T13:01:07.246Z,12.60
2018-12-26T13:03:47.768Z,13.93
2018-12-26T13:06:28.916Z,18.70
2018-12-26T13:09:09.542Z,20.80
2018-12-26T13:11:50.495Z,17.37
2018-12-26T13:14:30.891Z,24.73
2018-12-26T13:17:12.073Z,17.55
2018-12-26T13:19:52.880Z,14.43
2018-12-26T13:22:34.440Z,25.07
2018-12-26T13:25:15.287Z,18.03
2018-12-26T13:27:56.170Z,18.97
2018-12-26T13:30:36.822Z,18.23
2018-12-26T13:33:17.630Z,20.97
2018-12-26T13:35:58.674Z,23.83
2018-12-26T13:38:39.558Z,28.07
2018-12-26T13:41:19.851Z,24.80
2018-12-26T13:44:00.424Z,17.70
2018-12-26T13:46:43.890Z,24.37
2018-12-26T13:49:24.838Z,19.00
2018-12-26T13:52:05.768Z,23.00
2018-12-26T13:54:46.360Z,20.50
2018-12-26T13:57:27.163Z,24.53
2018-12-26T14:00:09.605Z,20.70
2018-12-26T14:02:54.330Z,20.77
2018-12-26T14:05:41.926Z,27.27
2018-12-26T14:08:22.483Z,25.30
2018-12-26T14:11:06.330Z,27.20
2018-12-26T14:13:47.204Z,23.40
2018-12-26T14:16:28.003Z,25.13
2018-12-26T14:19:08.414Z,25.57
2018-12-26T14:21:49.574Z,23.03
2018-12-26T14:24:30.287Z,29.77
2018-12-26T14:27:10.748Z,24.03
2018-12-26T14:29:51.698Z,26.60
2018-12-26T14:32:32.843Z,25.57
2018-12-26T14:35:13.441Z,20.30
2018-12-26T14:37:54.595Z,21.53
2018-12-26T14:40:35.665Z,19.97
2018-12-26T14:43:16.470Z,25.03
2018-12-26T14:45:57.515Z,19.03
2018-12-26T14:48:38.404Z,18.53
2018-12-26T14:51:26.365Z,18.40
2018-12-26T14:54:01.717Z,22.40
2018-12-26T14:56:42.804Z,28.13
2018-12-26T14:59:23.601Z,22.83
2018-12-26T15:02:04.447Z,21.53
2018-12-26T15:04:45.201Z,22.07
2018-12-26T15:07:26.313Z,24.80
2018-12-26T15:10:05.723Z,22.23
2018-12-26T15:12:46.431Z,22.00
2018-12-26T15:15:27.250Z,22.77
2018-12-26T15:18:08.249Z,25.83
2018-12-26T15:20:50.384Z,20.80
2018-12-26T15:23:31.568Z,25.07
2018-12-26T15:26:12.876Z,18.03
2018-12-26T15:28:53.644Z,26.93
2018-12-26T15:31:34.227Z,17.00
2018-12-26T15:34:15.158Z,19.47
2018-12-26T15:36:55.752Z,19.63
2018-12-26T15:39:36.536Z,22.63
2018-12-26T15:42:17.343Z,19.33
2018-12-26T15:44:57.939Z,18.13
2018-12-26T15:47:39.327Z,19.67
2018-12-26T15:50:20.107Z,18.70
2018-12-26T15:53:01.256Z,16.80
2018-12-26T15:55:42.048Z,16.53
2018-12-26T15:58:23.237Z,19.67
2018-12-26T16:01:04.765Z,15.00
2018-12-26T16:03:45.306Z,16.93
2018-12-26T16:06:25.890Z,21.60
2018-12-26T16:09:06.858Z,19.87
2018-12-26T16:11:47.629Z,14.07
2018-12-26T16:14:28.591Z,17.83
2018-12-26T16:17:11.858Z,18.27
2018-12-26T16:19:57.033Z,19.83
2018-12-26T16:22:39.613Z,16.17
2018-12-26T16:25:20.314Z,17.60
2018-12-26T16:28:00.940Z,16.83
2018-12-26T16:30:46.152Z,16.97
2018-12-26T16:33:25.166Z,16.60
2018-12-26T16:36:05.553Z,17.70
2018-12-26T16:38:46.027Z,21.40
2018-12-26T16:41:27.384Z,21.20
2018-12-26T16:44:08.007Z,15.70
2018-12-26T16:46:47.280Z,16.63
2018-12-26T16:49:28.167Z,14.27
2018-12-26T16:52:09.217Z,18.13
2018-12-26T16:54:49.752Z,18.70
2018-12-26T16:57:30.724Z,17.83
2018-12-26T17:00:12.100Z,22.53
2018-12-26T17:02:52.923Z,14.90
2018-12-26T17:05:33.341Z,17.07
2018-12-26T17:08:14.025Z,24.43
2018-12-26T17:10:54.968Z,18.90
2018-12-26T17:13:35.498Z,24.23
2018-12-26T17:16:16.760Z,26.07
2018-12-26T17:18:57.515Z,24.47
2018-12-26T17:21:40.152Z,15.97
2018-12-26T17:24:23.009Z,25.90
2018-12-26T17:27:03.856Z,15.90
2018-12-26T17:29:43.230Z,22.00
2018-12-26T17:32:31.530Z,18.27
2018-12-26T17:35:12.892Z,21.13
2018-12-26T17:37:53.400Z,24.10
2018-12-26T17:40:23.514Z,24.73
2018-12-26T17:43:11.806Z,17.83
2018-12-26T17:45:53.294Z,28.53
2018-12-26T17:48:34.356Z,18.33
2018-12-26T17:51:15.344Z,17.53
2018-12-26T17:53:56.030Z,18.73
2018-12-26T17:56:37.371Z,17.30
2018-12-26T17:59:18.235Z,21.53
2018-12-26T18:01:59.070Z,20.20
2018-12-26T18:04:39.812Z,22.97
2018-12-26T18:07:28.432Z,18.37
2018-12-26T18:10:12.849Z,21.00
2018-12-26T18:12:53.984Z,17.60
2018-12-26T18:15:33.086Z,20.77
2018-12-26T18:18:21.102Z,24.33
2018-12-26T18:21:02.138Z,18.13
2018-12-26T18:23:43.023Z,22.50
2018-12-26T18:26:23.909Z,23.53
2018-12-26T18:29:05.152Z,21.50
2018-12-26T18:31:46.239Z,33.80
2018-12-26T18:34:26.901Z,21.07
2018-12-26T18:37:07.985Z,37.50
2018-12-26T18:39:48.467Z,30.63
2018-12-26T18:42:29.297Z,35.10
2018-12-26T18:45:09.741Z,31.70
2018-12-26T18:47:50.494Z,37.30
2018-12-26T18:50:33.403Z,35.73
2018-12-26T18:53:14.456Z,33.80
2018-12-26T18:55:55.121Z,56.40
2018-12-26T18:58:35.776Z,47.33
2018-12-26T19:01:16.340Z,33.70
2018-12-26T19:03:57.062Z,39.43
2018-12-26T19:06:37.842Z,31.43
2018-12-26T19:09:18.342Z,41.23
2018-12-26T19:11:59.146Z,40.97
2018-12-26T19:14:40.456Z,51.47
2018-12-26T19:17:20.913Z,40.13
2018-12-26T19:20:01.849Z,43.97
2018-12-26T19:22:42.610Z,48.57
2018-12-26T19:25:23.227Z,55.37
2018-12-26T19:28:04.526Z,59.53
2018-12-26T19:30:45.466Z,43.77
2018-12-26T19:33:26.330Z,57.10
2018-12-26T19:36:07.117Z,45.90
2018-12-26T19:38:47.688Z,56.70
2018-12-26T19:41:28.566Z,56.63
2018-12-26T19:44:09.462Z,56.20
2018-12-26T19:46:50.146Z,52.03
2018-12-26T19:49:30.887Z,45.87
2018-12-26T19:52:11.760Z,56.60
2018-12-26T19:54:52.649Z,59.27
2018-12-26T19:57:33.545Z,57.70
2018-12-26T20:00:14.260Z,54.57
2018-12-26T20:02:55.206Z,53.03
2018-12-26T20:05:35.904Z,42.33
2018-12-26T20:08:19.059Z,53.93
2018-12-26T20:11:02.132Z,52.10
2018-12-26T20:13:42.646Z,64.53
2018-12-26T20:16:23.367Z,55.27
2018-12-26T20:19:04.235Z,55.20
2018-12-26T20:21:45.014Z,63.20
2018-12-26T20:24:25.797Z,59.10
2018-12-26T20:27:06.773Z,56.77
2018-12-26T20:29:48.138Z,42.87
2018-12-26T20:32:29.772Z,57.03
2018-12-26T20:35:10.819Z,73.23
2018-12-26T20:37:51.501Z,52.73
2018-12-26T20:40:32.078Z,53.27
2018-12-26T20:43:12.785Z,52.30
2018-12-26T20:45:54.206Z,64.00
2018-12-26T20:48:36.058Z,75.87
2018-12-26T20:51:17.453Z,67.10
2018-12-26T20:53:57.839Z,59.50
2018-12-26T20:56:38.290Z,75.87
2018-12-26T20:59:19.045Z,66.77
2018-12-26T21:02:05.602Z,80.00
2018-12-26T21:04:42.977Z,71.13
2018-12-26T21:07:23.479Z,62.53
2018-12-26T21:10:04.386Z,63.57
2018-12-26T21:12:45.428Z,57.43
2018-12-26T21:15:25.956Z,60.07
2018-12-26T21:18:07.188Z,57.23
2018-12-26T21:20:49.553Z,56.87
2018-12-26T21:23:30.430Z,67.83
2018-12-26T21:26:11.180Z,47.53
2018-12-26T21:28:51.678Z,65.40
2018-12-26T21:31:34.147Z,52.57
2018-12-26T21:34:15.620Z,66.03
2018-12-26T21:36:56.360Z,57.73
2018-12-26T21:39:37.298Z,61.33
2018-12-26T21:42:18.079Z,73.13
2018-12-26T21:44:59.721Z,59.17
2018-12-26T21:47:40.624Z,49.67
2018-12-26T21:50:21.327Z,75.30
2018-12-26T21:53:02.073Z,56.37
2018-12-26T21:55:44.152Z,56.57
2018-12-26T21:58:23.483Z,56.90
2018-12-26T22:01:04.168Z,61.83
2018-12-26T22:03:45.382Z,64.20
2018-12-26T22:06:26.286Z,58.73
2018-12-26T22:09:06.997Z,59.53
2018-12-26T22:11:47.619Z,51.93
2018-12-26T22:14:28.540Z,47.13
2018-12-26T22:17:09.281Z,50.87
2018-12-26T22:19:49.887Z,54.27
2018-12-26T22:22:30.613Z,59.17
2018-12-26T22:25:11.213Z,51.53
2018-12-26T22:27:52.273Z,58.10
2018-12-26T22:30:33.137Z,47.80
2018-12-26T22:33:13.685Z,47.50
2018-12-26T22:35:54.691Z,44.83
2018-12-26T22:38:35.322Z,48.47
2018-12-26T22:41:15.928Z,41.93
2018-12-26T22:43:56.657Z,51.87
2018-12-26T22:46:37.391Z,39.90
2018-12-26T22:49:18.309Z,42.00
2018-12-26T22:51:59.282Z,46.67
2018-12-26T22:54:40.011Z,36.90
2018-12-26T22:57:20.843Z,35.13
2018-12-26T23:00:01.852Z,37.77
2018-12-26T23:02:42.284Z,43.73
2018-12-26T23:05:25.260Z,41.63
2018-12-26T23:08:04.783Z,33.30
2018-12-26T23:10:52.895Z,41.27
2018-12-26T23:13:34.197Z,41.40
2018-12-26T23:16:14.969Z,35.00
2018-12-26T23:18:55.827Z,38.47
2018-12-26T23:21:36.471Z,38.90
2018-12-26T23:24:17.237Z,31.40
2018-12-26T23:26:58.144Z,30.57
2018-12-26T23:29:39.133Z,43.97
2018-12-26T23:32:19.558Z,38.60
2018-12-26T23:35:00.441Z,32.67
2018-12-26T23:37:41.839Z,47.17
2018-12-26T23:40:23.264Z,37.17
2018-12-26T23:43:03.960Z,36.27
2018-12-26T23:45:44.678Z,32.73
2018-12-26T23:48:25.203Z,38.67
2018-12-26T23:51:05.766Z,37.17
2018-12-26T23:53:46.230Z,36.73
2018-12-26T23:56:27.543Z,35.63
2018-12-26T23:59:08.081Z,40.87
